sensor_id;sensor_type;location;lat;lon;timestamp;P1;durP1;ratioP1;P2;durP2;ratioP2
15677;SDS011;7939;50.814;6.368;2023-05-10T00:01:41;11.63;;;8.75;;
15677;SDS011;7939;50.814;6.368;2023-05-10T00:04:09;8.98;;;7.50;;
15677;SDS011;7939;50.814;6.368;2023-05-10T00:06:36;10.68;;;8.23;;
15677;SDS011;7939;50.814;6.368;2023-05-10T00:09:02;12.65;;;8.35;;
15677;SDS011;7939;50.814;6.368;2023-05-10T00:11:29;10.20;;;8.20;;
15677;SDS011;7939;50.814;6.368;2023-05-10T00:13:55;8.20;;;6.88;;
15677;SDS011;7939;50.814;6.368;2023-05-10T00:16:22;8.88;;;7.07;;
15677;SDS011;7939;50.814;6.368;2023-05-10T00:18:49;6.20;;;5.38;;
15677;SDS011;7939;50.814;6.368;2023-05-10T00:21:16;6.70;;;5.43;;
15677;SDS011;7939;50.814;6.368;2023-05-10T00:23:43;6.70;;;5.13;;
15677;SDS011;7939;50.814;6.368;2023-05-10T00:26:10;7.30;;;5.57;;
15677;SDS011;7939;50.814;6.368;2023-05-10T00:28:37;7.13;;;5.63;;
15677;SDS011;7939;50.814;6.368;2023-05-10T00:31:03;10.27;;;6.25;;
15677;SDS011;7939;50.814;6.368;2023-05-10T00:33:30;10.60;;;6.85;;
15677;SDS011;7939;50.814;6.368;2023-05-10T00:35:56;9.80;;;6.63;;
15677;SDS011;7939;50.814;6.368;2023-05-10T00:38:24;11.57;;;7.47;;
15677;SDS011;7939;50.814;6.368;2023-05-10T00:40:51;10.18;;;7.28;;
15677;SDS011;7939;50.814;6.368;2023-05-10T00:43:17;11.20;;;7.60;;
15677;SDS011;7939;50.814;6.368;2023-05-10T00:45:44;13.10;;;7.70;;
15677;SDS011;7939;50.814;6.368;2023-05-10T00:48:10;15.50;;;8.73;;
15677;SDS011;7939;50.814;6.368;2023-05-10T00:50:37;12.80;;;8.55;;
15677;SDS011;7939;50.814;6.368;2023-05-10T00:53:05;14.00;;;8.15;;
15677;SDS011;7939;50.814;6.368;2023-05-10T00:55:33;13.63;;;8.20;;
15677;SDS011;7939;50.814;6.368;2023-05-10T00:58:00;12.88;;;8.07;;
15677;SDS011;7939;50.814;6.368;2023-05-10T01:00:26;12.25;;;7.97;;
15677;SDS011;7939;50.814;6.368;2023-05-10T01:02:54;13.25;;;8.70;;
15677;SDS011;7939;50.814;6.368;2023-05-10T01:05:21;12.88;;;8.25;;
15677;SDS011;7939;50.814;6.368;2023-05-10T01:07:48;12.45;;;8.13;;
15677;SDS011;7939;50.814;6.368;2023-05-10T01:10:14;12.93;;;9.23;;
15677;SDS011;7939;50.814;6.368;2023-05-10T01:12:43;13.15;;;9.93;;
15677;SDS011;7939;50.814;6.368;2023-05-10T01:15:12;13.10;;;9.48;;
15677;SDS011;7939;50.814;6.368;2023-05-10T01:17:42;17.35;;;10.20;;
15677;SDS011;7939;50.814;6.368;2023-05-10T01:20:11;17.88;;;11.63;;
15677;SDS011;7939;50.814;6.368;2023-05-10T01:22:54;17.08;;;10.93;;
15677;SDS011;7939;50.814;6.368;2023-05-10T01:25:40;15.07;;;9.63;;
15677;SDS011;7939;50.814;6.368;2023-05-10T01:31:50;14.68;;;10.35;;
15677;SDS011;7939;50.814;6.368;2023-05-10T01:34:32;16.45;;;10.50;;
15677;SDS011;7939;50.814;6.368;2023-05-10T01:37:02;17.05;;;10.52;;
15677;SDS011;7939;50.814;6.368;2023-05-10T01:39:36;14.93;;;10.45;;
15677;SDS011;7939;50.814;6.368;2023-05-10T01:42:11;16.17;;;10.45;;
15677;SDS011;7939;50.814;6.368;2023-05-10T01:44:41;16.08;;;10.02;;
15677;SDS011;7939;50.814;6.368;2023-05-10T01:47:15;14.98;;;9.63;;
15677;SDS011;7939;50.814;6.368;2023-05-10T01:49:47;15.15;;;10.20;;
15677;SDS011;7939;50.814;6.368;2023-05-10T01:52:17;12.75;;;8.90;;
15677;SDS011;7939;50.814;6.368;2023-05-10T01:54:48;14.15;;;9.27;;
15677;SDS011;7939;50.814;6.368;2023-05-10T01:57:19;12.32;;;8.98;;
15677;SDS011;7939;50.814;6.368;2023-05-10T01:59:51;14.85;;;9.20;;
15677;SDS011;7939;50.814;6.368;2023-05-10T02:02:21;12.55;;;8.63;;
15677;SDS011;7939;50.814;6.368;2023-05-10T02:04:49;12.43;;;8.57;;
15677;SDS011;7939;50.814;6.368;2023-05-10T02:07:17;10.93;;;8.18;;
15677;SDS011;7939;50.814;6.368;2023-05-10T02:09:46;10.88;;;8.07;;
15677;SDS011;7939;50.814;6.368;2023-05-10T02:12:14;14.48;;;8.63;;
15677;SDS011;7939;50.814;6.368;2023-05-10T02:14:42;14.18;;;8.77;;
15677;SDS011;7939;50.814;6.368;2023-05-10T02:17:10;11.82;;;8.43;;
15677;SDS011;7939;50.814;6.368;2023-05-10T02:19:40;12.93;;;8.70;;
15677;SDS011;7939;50.814;6.368;2023-05-10T02:22:09;12.43;;;9.00;;
15677;SDS011;7939;50.814;6.368;2023-05-10T02:24:36;13.27;;;8.57;;
15677;SDS011;7939;50.814;6.368;2023-05-10T02:27:04;11.70;;;8.95;;
15677;SDS011;7939;50.814;6.368;2023-05-10T02:29:33;14.73;;;9.20;;
15677;SDS011;7939;50.814;6.368;2023-05-10T02:32:01;12.40;;;9.52;;
15677;SDS011;7939;50.814;6.368;2023-05-10T02:34:29;11.65;;;8.77;;
15677;SDS011;7939;50.814;6.368;2023-05-10T02:36:57;11.80;;;8.80;;
15677;SDS011;7939;50.814;6.368;2023-05-10T02:39:25;12.85;;;8.93;;
15677;SDS011;7939;50.814;6.368;2023-05-10T02:41:54;13.25;;;9.00;;
15677;SDS011;7939;50.814;6.368;2023-05-10T02:44:23;11.65;;;8.40;;
15677;SDS011;7939;50.814;6.368;2023-05-10T02:46:52;12.57;;;8.43;;
15677;SDS011;7939;50.814;6.368;2023-05-10T02:49:21;11.98;;;8.07;;
15677;SDS011;7939;50.814;6.368;2023-05-10T02:51:49;12.60;;;7.68;;
15677;SDS011;7939;50.814;6.368;2023-05-10T02:54:20;10.45;;;7.25;;
15677;SDS011;7939;50.814;6.368;2023-05-10T02:56:51;9.70;;;7.32;;
15677;SDS011;7939;50.814;6.368;2023-05-10T02:59:24;10.10;;;7.50;;
15677;SDS011;7939;50.814;6.368;2023-05-10T03:01:51;8.65;;;7.30;;
15677;SDS011;7939;50.814;6.368;2023-05-10T03:04:17;12.30;;;8.10;;
15677;SDS011;7939;50.814;6.368;2023-05-10T03:06:44;10.07;;;7.50;;
15677;SDS011;7939;50.814;6.368;2023-05-10T03:09:11;9.82;;;7.72;;
15677;SDS011;7939;50.814;6.368;2023-05-10T03:11:46;9.23;;;6.95;;
15677;SDS011;7939;50.814;6.368;2023-05-10T03:14:21;10.50;;;7.70;;
15677;SDS011;7939;50.814;6.368;2023-05-10T03:16:56;12.93;;;7.65;;
15677;SDS011;7939;50.814;6.368;2023-05-10T03:19:27;10.65;;;6.78;;
15677;SDS011;7939;50.814;6.368;2023-05-10T03:21:59;11.02;;;8.30;;
15677;SDS011;7939;50.814;6.368;2023-05-10T03:24:29;11.13;;;7.75;;
15677;SDS011;7939;50.814;6.368;2023-05-10T03:26:59;11.98;;;8.35;;
15677;SDS011;7939;50.814;6.368;2023-05-10T03:29:27;9.93;;;7.57;;
15677;SDS011;7939;50.814;6.368;2023-05-10T03:31:56;11.27;;;7.50;;
15677;SDS011;7939;50.814;6.368;2023-05-10T03:34:24;12.25;;;8.10;;
15677;SDS011;7939;50.814;6.368;2023-05-10T03:36:50;13.98;;;8.57;;
15677;SDS011;7939;50.814;6.368;2023-05-10T03:39:17;13.95;;;9.07;;
15677;SDS011;7939;50.814;6.368;2023-05-10T03:41:44;13.05;;;9.43;;
15677;SDS011;7939;50.814;6.368;2023-05-10T03:44:12;14.65;;;9.38;;
15677;SDS011;7939;50.814;6.368;2023-05-10T03:46:38;13.20;;;9.52;;
15677;SDS011;7939;50.814;6.368;2023-05-10T03:49:05;14.23;;;9.27;;
15677;SDS011;7939;50.814;6.368;2023-05-10T03:51:32;14.45;;;9.43;;
15677;SDS011;7939;50.814;6.368;2023-05-10T03:53:58;14.63;;;10.88;;
15677;SDS011;7939;50.814;6.368;2023-05-10T03:56:25;14.60;;;10.75;;
15677;SDS011;7939;50.814;6.368;2023-05-10T03:58:51;14.00;;;9.50;;
15677;SDS011;7939;50.814;6.368;2023-05-10T04:01:19;12.55;;;9.38;;
15677;SDS011;7939;50.814;6.368;2023-05-10T04:03:46;17.55;;;11.32;;
15677;SDS011;7939;50.814;6.368;2023-05-10T04:06:12;15.52;;;10.65;;
15677;SDS011;7939;50.814;6.368;2023-05-10T04:08:39;16.63;;;10.30;;
15677;SDS011;7939;50.814;6.368;2023-05-10T04:11:05;16.30;;;10.30;;
15677;SDS011;7939;50.814;6.368;2023-05-10T04:13:33;15.32;;;10.20;;
15677;SDS011;7939;50.814;6.368;2023-05-10T04:16:00;17.60;;;12.05;;
15677;SDS011;7939;50.814;6.368;2023-05-10T04:18:27;18.85;;;11.30;;
15677;SDS011;7939;50.814;6.368;2023-05-10T04:20:54;17.73;;;11.48;;
15677;SDS011;7939;50.814;6.368;2023-05-10T04:23:21;18.90;;;11.50;;
15677;SDS011;7939;50.814;6.368;2023-05-10T04:25:47;16.02;;;10.75;;
15677;SDS011;7939;50.814;6.368;2023-05-10T04:28:14;21.70;;;11.00;;
15677;SDS011;7939;50.814;6.368;2023-05-10T04:30:40;18.33;;;9.80;;
15677;SDS011;7939;50.814;6.368;2023-05-10T04:33:07;19.75;;;12.13;;
15677;SDS011;7939;50.814;6.368;2023-05-10T04:35:35;15.57;;;10.65;;
15677;SDS011;7939;50.814;6.368;2023-05-10T04:38:02;17.35;;;10.32;;
15677;SDS011;7939;50.814;6.368;2023-05-10T04:40:28;16.33;;;9.10;;
15677;SDS011;7939;50.814;6.368;2023-05-10T04:42:55;13.27;;;9.38;;
15677;SDS011;7939;50.814;6.368;2023-05-10T04:45:21;15.32;;;9.43;;
15677;SDS011;7939;50.814;6.368;2023-05-10T04:47:48;15.00;;;8.77;;
15677;SDS011;7939;50.814;6.368;2023-05-10T04:50:15;11.05;;;8.27;;
15677;SDS011;7939;50.814;6.368;2023-05-10T04:52:43;13.00;;;8.23;;
15677;SDS011;7939;50.814;6.368;2023-05-10T04:55:10;11.68;;;7.70;;
15677;SDS011;7939;50.814;6.368;2023-05-10T04:57:37;12.38;;;8.98;;
15677;SDS011;7939;50.814;6.368;2023-05-10T05:00:04;11.63;;;7.47;;
15677;SDS011;7939;50.814;6.368;2023-05-10T05:02:31;12.27;;;7.80;;
15677;SDS011;7939;50.814;6.368;2023-05-10T05:04:58;10.85;;;7.20;;
15677;SDS011;7939;50.814;6.368;2023-05-10T05:07:24;11.75;;;7.28;;
15677;SDS011;7939;50.814;6.368;2023-05-10T05:09:52;13.23;;;6.70;;
15677;SDS011;7939;50.814;6.368;2023-05-10T05:12:19;9.73;;;6.35;;
15677;SDS011;7939;50.814;6.368;2023-05-10T05:14:45;12.23;;;7.05;;
15677;SDS011;7939;50.814;6.368;2023-05-10T05:17:12;10.20;;;6.50;;
15677;SDS011;7939;50.814;6.368;2023-05-10T05:19:38;12.85;;;6.90;;
15677;SDS011;7939;50.814;6.368;2023-05-10T05:22:06;13.32;;;6.68;;
15677;SDS011;7939;50.814;6.368;2023-05-10T05:24:34;9.88;;;6.78;;
15677;SDS011;7939;50.814;6.368;2023-05-10T05:27:03;12.73;;;6.82;;
15677;SDS011;7939;50.814;6.368;2023-05-10T05:29:29;13.98;;;7.10;;
15677;SDS011;7939;50.814;6.368;2023-05-10T05:31:56;12.65;;;6.72;;
15677;SDS011;7939;50.814;6.368;2023-05-10T05:34:22;12.32;;;6.50;;
15677;SDS011;7939;50.814;6.368;2023-05-10T05:36:49;16.27;;;7.18;;
15677;SDS011;7939;50.814;6.368;2023-05-10T05:39:16;13.25;;;7.55;;
15677;SDS011;7939;50.814;6.368;2023-05-10T05:41:42;14.00;;;7.10;;
15677;SDS011;7939;50.814;6.368;2023-05-10T05:44:10;12.95;;;7.45;;
15677;SDS011;7939;50.814;6.368;2023-05-10T05:46:37;17.10;;;6.75;;
15677;SDS011;7939;50.814;6.368;2023-05-10T05:49:03;12.13;;;6.57;;
15677;SDS011;7939;50.814;6.368;2023-05-10T05:51:30;16.45;;;7.28;;
15677;SDS011;7939;50.814;6.368;2023-05-10T05:53:57;14.55;;;6.78;;
15677;SDS011;7939;50.814;6.368;2023-05-10T05:56:24;13.52;;;6.80;;
15677;SDS011;7939;50.814;6.368;2023-05-10T05:58:50;13.40;;;7.28;;
15677;SDS011;7939;50.814;6.368;2023-05-10T06:01:18;15.50;;;6.53;;
15677;SDS011;7939;50.814;6.368;2023-05-10T06:03:45;15.45;;;7.38;;
15677;SDS011;7939;50.814;6.368;2023-05-10T06:06:11;16.35;;;7.72;;
15677;SDS011;7939;50.814;6.368;2023-05-10T06:08:38;12.25;;;6.57;;
15677;SDS011;7939;50.814;6.368;2023-05-10T06:11:05;11.27;;;6.30;;
15677;SDS011;7939;50.814;6.368;2023-05-10T06:13:31;11.38;;;5.95;;
15677;SDS011;7939;50.814;6.368;2023-05-10T06:16:00;10.55;;;5.90;;
15677;SDS011;7939;50.814;6.368;2023-05-10T06:18:28;8.93;;;5.60;;
15677;SDS011;7939;50.814;6.368;2023-05-10T06:20:55;9.68;;;5.18;;
15677;SDS011;7939;50.814;6.368;2023-05-10T06:23:21;10.02;;;5.45;;
15677;SDS011;7939;50.814;6.368;2023-05-10T06:25:48;7.95;;;4.88;;
15677;SDS011;7939;50.814;6.368;2023-05-10T06:28:14;7.70;;;4.75;;
15677;SDS011;7939;50.814;6.368;2023-05-10T06:30:41;7.70;;;4.43;;
15677;SDS011;7939;50.814;6.368;2023-05-10T06:33:08;9.40;;;5.05;;
15677;SDS011;7939;50.814;6.368;2023-05-10T06:35:36;7.88;;;5.75;;
15677;SDS011;7939;50.814;6.368;2023-05-10T06:38:04;9.68;;;6.22;;
15677;SDS011;7939;50.814;6.368;2023-05-10T06:40:30;8.43;;;5.22;;
15677;SDS011;7939;50.814;6.368;2023-05-10T06:42:58;8.73;;;6.00;;
15677;SDS011;7939;50.814;6.368;2023-05-10T06:45:24;8.18;;;5.90;;
15677;SDS011;7939;50.814;6.368;2023-05-10T06:47:51;9.75;;;5.00;;
15677;SDS011;7939;50.814;6.368;2023-05-10T06:50:18;6.20;;;4.28;;
15677;SDS011;7939;50.814;6.368;2023-05-10T06:52:46;5.60;;;3.70;;
15677;SDS011;7939;50.814;6.368;2023-05-10T06:55:13;4.75;;;3.28;;
15677;SDS011;7939;50.814;6.368;2023-05-10T06:57:40;6.88;;;2.90;;
15677;SDS011;7939;50.814;6.368;2023-05-10T07:00:07;6.28;;;2.97;;
15677;SDS011;7939;50.814;6.368;2023-05-10T07:02:35;3.60;;;2.38;;
15677;SDS011;7939;50.814;6.368;2023-05-10T07:05:02;3.42;;;2.20;;
15677;SDS011;7939;50.814;6.368;2023-05-10T07:07:28;4.07;;;2.33;;
15677;SDS011;7939;50.814;6.368;2023-05-10T07:09:57;3.40;;;2.08;;
15677;SDS011;7939;50.814;6.368;2023-05-10T07:12:24;2.45;;;1.83;;
15677;SDS011;7939;50.814;6.368;2023-05-10T07:14:50;2.78;;;1.45;;
15677;SDS011;7939;50.814;6.368;2023-05-10T07:17:20;2.10;;;1.27;;
15677;SDS011;7939;50.814;6.368;2023-05-10T07:19:46;1.10;;;1.00;;
15677;SDS011;7939;50.814;6.368;2023-05-10T07:22:13;0.80;;;0.80;;
15677;SDS011;7939;50.814;6.368;2023-05-10T07:24:41;1.77;;;1.00;;
15677;SDS011;7939;50.814;6.368;2023-05-10T07:27:09;1.48;;;0.90;;
15677;SDS011;7939;50.814;6.368;2023-05-10T07:29:36;1.30;;;0.82;;
15677;SDS011;7939;50.814;6.368;2023-05-10T07:32:03;0.80;;;0.80;;
15677;SDS011;7939;50.814;6.368;2023-05-10T07:34:30;1.25;;;1.13;;
15677;SDS011;7939;50.814;6.368;2023-05-10T07:36:57;1.67;;;1.35;;
15677;SDS011;7939;50.814;6.368;2023-05-10T07:39:24;1.40;;;1.10;;
15677;SDS011;7939;50.814;6.368;2023-05-10T07:41:51;1.77;;;1.27;;
15677;SDS011;7939;50.814;6.368;2023-05-10T07:44:19;1.48;;;0.80;;
15677;SDS011;7939;50.814;6.368;2023-05-10T07:46:46;1.52;;;1.02;;
15677;SDS011;7939;50.814;6.368;2023-05-10T07:49:12;1.40;;;1.30;;
15677;SDS011;7939;50.814;6.368;2023-05-10T07:51:39;1.20;;;1.10;;
15677;SDS011;7939;50.814;6.368;2023-05-10T07:54:06;1.33;;;1.23;;
15677;SDS011;7939;50.814;6.368;2023-05-10T07:56:32;4.53;;;1.40;;
15677;SDS011;7939;50.814;6.368;2023-05-10T07:58:59;1.52;;;1.42;;
15677;SDS011;7939;50.814;6.368;2023-05-10T08:01:29;2.05;;;1.50;;
15677;SDS011;7939;50.814;6.368;2023-05-10T08:03:57;2.92;;;1.92;;
15677;SDS011;7939;50.814;6.368;2023-05-10T08:06:23;2.95;;;2.20;;
15677;SDS011;7939;50.814;6.368;2023-05-10T08:08:51;4.63;;;2.42;;
15677;SDS011;7939;50.814;6.368;2023-05-10T08:11:19;4.07;;;2.67;;
15677;SDS011;7939;50.814;6.368;2023-05-10T08:13:46;3.55;;;2.78;;
15677;SDS011;7939;50.814;6.368;2023-05-10T08:16:14;2.70;;;2.33;;
15677;SDS011;7939;50.814;6.368;2023-05-10T08:18:43;3.63;;;2.70;;
15677;SDS011;7939;50.814;6.368;2023-05-10T08:21:11;3.72;;;2.35;;
15677;SDS011;7939;50.814;6.368;2023-05-10T08:23:38;8.32;;;5.07;;
15677;SDS011;7939;50.814;6.368;2023-05-10T08:26:05;16.00;;;7.88;;
15677;SDS011;7939;50.814;6.368;2023-05-10T08:28:32;14.85;;;7.55;;
15677;SDS011;7939;50.814;6.368;2023-05-10T08:30:59;13.25;;;7.88;;
15677;SDS011;7939;50.814;6.368;2023-05-10T08:33:25;19.20;;;9.02;;
15677;SDS011;7939;50.814;6.368;2023-05-10T08:35:53;19.05;;;9.50;;
15677;SDS011;7939;50.814;6.368;2023-05-10T08:38:20;22.23;;;9.88;;
15677;SDS011;7939;50.814;6.368;2023-05-10T08:40:46;18.30;;;9.07;;
15677;SDS011;7939;50.814;6.368;2023-05-10T08:43:15;20.92;;;10.57;;
15677;SDS011;7939;50.814;6.368;2023-05-10T08:45:43;19.30;;;9.80;;
15677;SDS011;7939;50.814;6.368;2023-05-10T08:48:12;19.58;;;9.38;;
15677;SDS011;7939;50.814;6.368;2023-05-10T08:50:39;14.45;;;7.75;;
15677;SDS011;7939;50.814;6.368;2023-05-10T08:53:09;12.52;;;7.15;;
15677;SDS011;7939;50.814;6.368;2023-05-10T08:55:37;14.05;;;7.30;;
15677;SDS011;7939;50.814;6.368;2023-05-10T08:58:05;11.98;;;7.22;;
15677;SDS011;7939;50.814;6.368;2023-05-10T09:00:32;10.52;;;6.20;;
15677;SDS011;7939;50.814;6.368;2023-05-10T09:03:00;8.68;;;5.53;;
15677;SDS011;7939;50.814;6.368;2023-05-10T09:05:27;7.80;;;4.50;;
15677;SDS011;7939;50.814;6.368;2023-05-10T09:07:54;6.18;;;4.05;;
15677;SDS011;7939;50.814;6.368;2023-05-10T09:10:22;8.63;;;4.97;;
15677;SDS011;7939;50.814;6.368;2023-05-10T09:12:51;5.22;;;3.05;;
15677;SDS011;7939;50.814;6.368;2023-05-10T09:15:18;3.30;;;2.90;;
15677;SDS011;7939;50.814;6.368;2023-05-10T09:17:46;2.80;;;2.17;;
15677;SDS011;7939;50.814;6.368;2023-05-10T09:20:13;1.85;;;1.63;;
15677;SDS011;7939;50.814;6.368;2023-05-10T09:22:40;1.88;;;1.67;;
15677;SDS011;7939;50.814;6.368;2023-05-10T09:25:07;2.05;;;1.70;;
15677;SDS011;7939;50.814;6.368;2023-05-10T09:27:38;2.03;;;1.58;;
15677;SDS011;7939;50.814;6.368;2023-05-10T09:30:05;2.33;;;1.65;;
15677;SDS011;7939;50.814;6.368;2023-05-10T09:32:37;2.85;;;1.52;;
15677;SDS011;7939;50.814;6.368;2023-05-10T09:35:08;2.53;;;1.42;;
15677;SDS011;7939;50.814;6.368;2023-05-10T09:37:35;2.17;;;1.58;;
15677;SDS011;7939;50.814;6.368;2023-05-10T09:40:05;2.08;;;1.92;;
15677;SDS011;7939;50.814;6.368;2023-05-10T09:42:33;1.70;;;1.60;;
15677;SDS011;7939;50.814;6.368;2023-05-10T09:45:03;1.90;;;1.80;;
15677;SDS011;7939;50.814;6.368;2023-05-10T09:47:31;1.98;;;1.60;;
15677;SDS011;7939;50.814;6.368;2023-05-10T09:49:58;1.95;;;1.75;;
15677;SDS011;7939;50.814;6.368;2023-05-10T09:52:28;2.92;;;2.15;;
15677;SDS011;7939;50.814;6.368;2023-05-10T09:54:55;1.75;;;1.63;;
15677;SDS011;7939;50.814;6.368;2023-05-10T09:57:23;2.40;;;1.90;;
15677;SDS011;7939;50.814;6.368;2023-05-10T09:59:50;4.00;;;1.70;;
15677;SDS011;7939;50.814;6.368;2023-05-10T10:02:20;2.03;;;1.83;;
15677;SDS011;7939;50.814;6.368;2023-05-10T10:04:49;1.63;;;1.52;;
15677;SDS011;7939;50.814;6.368;2023-05-10T10:07:17;1.88;;;1.77;;
15677;SDS011;7939;50.814;6.368;2023-05-10T10:09:49;4.30;;;1.75;;
15677;SDS011;7939;50.814;6.368;2023-05-10T10:12:16;3.03;;;1.20;;
15677;SDS011;7939;50.814;6.368;2023-05-10T10:14:44;1.85;;;1.50;;
15677;SDS011;7939;50.814;6.368;2023-05-10T10:17:12;1.63;;;1.52;;
15677;SDS011;7939;50.814;6.368;2023-05-10T10:19:40;1.25;;;1.15;;
15677;SDS011;7939;50.814;6.368;2023-05-10T10:22:08;2.65;;;2.47;;
15677;SDS011;7939;50.814;6.368;2023-05-10T10:24:36;1.77;;;1.67;;
15677;SDS011;7939;50.814;6.368;2023-05-10T10:27:07;1.40;;;1.30;;
15677;SDS011;7939;50.814;6.368;2023-05-10T10:29:44;1.80;;;1.70;;
15677;SDS011;7939;50.814;6.368;2023-05-10T10:32:21;2.25;;;1.67;;
15677;SDS011;7939;50.814;6.368;2023-05-10T10:34:55;1.80;;;1.70;;
15677;SDS011;7939;50.814;6.368;2023-05-10T10:37:22;1.52;;;1.42;;
15677;SDS011;7939;50.814;6.368;2023-05-10T10:39:48;2.75;;;1.88;;
15677;SDS011;7939;50.814;6.368;2023-05-10T10:42:24;4.00;;;1.77;;
15677;SDS011;7939;50.814;6.368;2023-05-10T10:45:13;2.42;;;1.40;;
15677;SDS011;7939;50.814;6.368;2023-05-10T10:47:39;1.75;;;1.65;;
15677;SDS011;7939;50.814;6.368;2023-05-10T10:50:09;1.92;;;1.80;;
15677;SDS011;7939;50.814;6.368;2023-05-10T10:52:38;2.03;;;1.90;;
15677;SDS011;7939;50.814;6.368;2023-05-10T10:55:06;2.13;;;1.92;;
15677;SDS011;7939;50.814;6.368;2023-05-10T10:57:42;2.60;;;2.05;;
15677;SDS011;7939;50.814;6.368;2023-05-10T11:00:26;2.35;;;2.15;;
15677;SDS011;7939;50.814;6.368;2023-05-10T11:02:56;2.28;;;2.08;;
15677;SDS011;7939;50.814;6.368;2023-05-10T11:05:33;2.30;;;2.10;;
15677;SDS011;7939;50.814;6.368;2023-05-10T11:08:10;1.88;;;1.77;;
15677;SDS011;7939;50.814;6.368;2023-05-10T11:10:38;2.22;;;2.03;;
15677;SDS011;7939;50.814;6.368;2023-05-10T11:13:06;1.83;;;1.73;;
15677;SDS011;7939;50.814;6.368;2023-05-10T11:15:34;2.45;;;2.25;;
15677;SDS011;7939;50.814;6.368;2023-05-10T11:18:16;2.08;;;1.98;;
15677;SDS011;7939;50.814;6.368;2023-05-10T11:20:46;2.67;;;2.25;;
15677;SDS011;7939;50.814;6.368;2023-05-10T11:23:16;2.70;;;1.80;;
15677;SDS011;7939;50.814;6.368;2023-05-10T11:25:45;1.95;;;1.50;;
15677;SDS011;7939;50.814;6.368;2023-05-10T11:28:12;1.65;;;1.20;;
15677;SDS011;7939;50.814;6.368;2023-05-10T11:30:39;2.28;;;1.58;;
15677;SDS011;7939;50.814;6.368;2023-05-10T11:33:07;1.77;;;1.33;;
15677;SDS011;7939;50.814;6.368;2023-05-10T11:35:37;1.73;;;1.52;;
15677;SDS011;7939;50.814;6.368;2023-05-10T11:38:06;2.47;;;1.50;;
15677;SDS011;7939;50.814;6.368;2023-05-10T11:40:33;1.95;;;1.55;;
15677;SDS011;7939;50.814;6.368;2023-05-10T11:43:00;1.67;;;1.58;;
15677;SDS011;7939;50.814;6.368;2023-05-10T11:45:27;3.15;;;1.73;;
15677;SDS011;7939;50.814;6.368;2023-05-10T11:47:56;1.45;;;1.35;;
15677;SDS011;7939;50.814;6.368;2023-05-10T11:50:23;1.52;;;1.42;;
15677;SDS011;7939;50.814;6.368;2023-05-10T11:52:51;2.25;;;1.70;;
15677;SDS011;7939;50.814;6.368;2023-05-10T11:55:19;1.98;;;1.83;;
15677;SDS011;7939;50.814;6.368;2023-05-10T11:57:46;1.92;;;1.25;;
15677;SDS011;7939;50.814;6.368;2023-05-10T12:00:13;1.40;;;1.30;;
15677;SDS011;7939;50.814;6.368;2023-05-10T12:02:41;2.42;;;1.60;;
15677;SDS011;7939;50.814;6.368;2023-05-10T12:05:08;2.03;;;1.65;;
15677;SDS011;7939;50.814;6.368;2023-05-10T12:07:36;2.80;;;2.20;;
15677;SDS011;7939;50.814;6.368;2023-05-10T12:10:04;2.30;;;2.10;;
15677;SDS011;7939;50.814;6.368;2023-05-10T12:12:36;2.30;;;2.00;;
15677;SDS011;7939;50.814;6.368;2023-05-10T12:15:04;1.80;;;1.70;;
15677;SDS011;7939;50.814;6.368;2023-05-10T12:17:32;1.70;;;1.42;;
15677;SDS011;7939;50.814;6.368;2023-05-10T12:19:59;2.83;;;1.80;;
15677;SDS011;7939;50.814;6.368;2023-05-10T12:22:39;2.58;;;1.65;;
15677;SDS011;7939;50.814;6.368;2023-05-10T12:25:06;3.47;;;1.95;;
15677;SDS011;7939;50.814;6.368;2023-05-10T12:27:34;2.10;;;1.90;;
15677;SDS011;7939;50.814;6.368;2023-05-10T12:30:03;2.95;;;2.53;;
15677;SDS011;7939;50.814;6.368;2023-05-10T12:32:39;2.55;;;2.35;;
15677;SDS011;7939;50.814;6.368;2023-05-10T12:35:07;2.13;;;2.00;;
15677;SDS011;7939;50.814;6.368;2023-05-10T12:37:34;3.25;;;2.92;;
15677;SDS011;7939;50.814;6.368;2023-05-10T12:40:05;2.80;;;2.17;;
15677;SDS011;7939;50.814;6.368;2023-05-10T12:42:33;4.28;;;3.17;;
15677;SDS011;7939;50.814;6.368;2023-05-10T12:45:00;3.28;;;2.92;;
15677;SDS011;7939;50.814;6.368;2023-05-10T12:47:28;3.13;;;2.83;;
15677;SDS011;7939;50.814;6.368;2023-05-10T12:49:55;3.05;;;2.83;;
15677;SDS011;7939;50.814;6.368;2023-05-10T12:52:22;4.50;;;3.15;;
15677;SDS011;7939;50.814;6.368;2023-05-10T12:54:48;3.47;;;2.22;;
15677;SDS011;7939;50.814;6.368;2023-05-10T12:57:15;2.72;;;2.40;;
15677;SDS011;7939;50.814;6.368;2023-05-10T12:59:42;2.28;;;2.15;;
15677;SDS011;7939;50.814;6.368;2023-05-10T13:02:08;2.72;;;2.25;;
15677;SDS011;7939;50.814;6.368;2023-05-10T13:04:37;3.92;;;2.33;;
15677;SDS011;7939;50.814;6.368;2023-05-10T13:07:04;2.28;;;2.05;;
15677;SDS011;7939;50.814;6.368;2023-05-10T13:09:31;2.70;;;2.50;;
15677;SDS011;7939;50.814;6.368;2023-05-10T13:11:59;3.13;;;2.63;;
15677;SDS011;7939;50.814;6.368;2023-05-10T13:14:26;2.95;;;2.58;;
15677;SDS011;7939;50.814;6.368;2023-05-10T13:16:52;3.03;;;2.22;;
15677;SDS011;7939;50.814;6.368;2023-05-10T13:19:19;2.33;;;2.13;;
15677;SDS011;7939;50.814;6.368;2023-05-10T13:21:47;2.40;;;2.15;;
15677;SDS011;7939;50.814;6.368;2023-05-10T13:24:14;2.83;;;2.30;;
15677;SDS011;7939;50.814;6.368;2023-05-10T13:26:42;3.10;;;2.78;;
15677;SDS011;7939;50.814;6.368;2023-05-10T13:29:08;4.30;;;2.95;;
15677;SDS011;7939;50.814;6.368;2023-05-10T13:31:35;2.42;;;2.20;;
15677;SDS011;7939;50.814;6.368;2023-05-10T13:34:02;2.50;;;2.30;;
15677;SDS011;7939;50.814;6.368;2023-05-10T13:36:28;4.28;;;2.80;;
15677;SDS011;7939;50.814;6.368;2023-05-10T13:38:57;2.88;;;2.58;;
15677;SDS011;7939;50.814;6.368;2023-05-10T13:41:23;3.88;;;2.40;;
15677;SDS011;7939;50.814;6.368;2023-05-10T13:43:50;4.45;;;3.00;;
15677;SDS011;7939;50.814;6.368;2023-05-10T13:46:16;3.42;;;2.97;;
15677;SDS011;7939;50.814;6.368;2023-05-10T13:48:44;5.03;;;2.78;;
15677;SDS011;7939;50.814;6.368;2023-05-10T13:51:10;4.55;;;3.08;;
15677;SDS011;7939;50.814;6.368;2023-05-10T13:53:37;4.63;;;3.30;;
15677;SDS011;7939;50.814;6.368;2023-05-10T13:56:05;4.25;;;2.90;;
15677;SDS011;7939;50.814;6.368;2023-05-10T13:58:32;4.10;;;3.03;;
15677;SDS011;7939;50.814;6.368;2023-05-10T14:01:00;2.65;;;2.28;;
15677;SDS011;7939;50.814;6.368;2023-05-10T14:03:27;3.92;;;2.83;;
15677;SDS011;7939;50.814;6.368;2023-05-10T14:05:53;2.38;;;2.17;;
15677;SDS011;7939;50.814;6.368;2023-05-10T14:08:20;3.28;;;2.80;;
15677;SDS011;7939;50.814;6.368;2023-05-10T14:10:46;4.55;;;2.33;;
15677;SDS011;7939;50.814;6.368;2023-05-10T14:13:15;3.83;;;2.97;;
15677;SDS011;7939;50.814;6.368;2023-05-10T14:15:41;3.17;;;2.63;;
15677;SDS011;7939;50.814;6.368;2023-05-10T14:18:08;4.00;;;2.67;;
15677;SDS011;7939;50.814;6.368;2023-05-10T14:20:34;4.18;;;2.78;;
15677;SDS011;7939;50.814;6.368;2023-05-10T14:23:01;4.40;;;3.05;;
15677;SDS011;7939;50.814;6.368;2023-05-10T14:25:27;3.83;;;3.20;;
15677;SDS011;7939;50.814;6.368;2023-05-10T14:27:54;5.53;;;3.38;;
15677;SDS011;7939;50.814;6.368;2023-05-10T14:30:22;5.53;;;3.45;;
15677;SDS011;7939;50.814;6.368;2023-05-10T14:32:49;5.07;;;3.10;;
15677;SDS011;7939;50.814;6.368;2023-05-10T14:35:15;4.80;;;3.50;;
15677;SDS011;7939;50.814;6.368;2023-05-10T14:37:42;4.25;;;3.53;;
15677;SDS011;7939;50.814;6.368;2023-05-10T14:40:09;3.80;;;2.78;;
15677;SDS011;7939;50.814;6.368;2023-05-10T14:42:36;4.63;;;3.10;;
15677;SDS011;7939;50.814;6.368;2023-05-10T14:45:03;5.30;;;3.28;;
15677;SDS011;7939;50.814;6.368;2023-05-10T14:47:32;4.35;;;3.35;;
15677;SDS011;7939;50.814;6.368;2023-05-10T14:49:59;3.60;;;3.22;;
15677;SDS011;7939;50.814;6.368;2023-05-10T14:52:25;5.35;;;3.40;;
15677;SDS011;7939;50.814;6.368;2023-05-10T14:54:52;3.97;;;3.00;;
15677;SDS011;7939;50.814;6.368;2023-05-10T14:57:19;3.92;;;3.35;;
15677;SDS011;7939;50.814;6.368;2023-05-10T14:59:46;4.22;;;2.65;;
15677;SDS011;7939;50.814;6.368;2023-05-10T15:02:13;3.28;;;2.72;;
15677;SDS011;7939;50.814;6.368;2023-05-10T15:04:41;3.70;;;2.80;;